Silver Gate, MT

6:51 AM MST on March 01, 2015 (GMT -0700)
RAWS SODA BUTTE MT US | Change Station
CLOSE
Current Station
Personal Weather Station
Location: Cooke City, MT
Elevation: 8160 ft
Nearby Weather Stations
Active Advisory: Winter Storm Watch

Elev 8160 ft 45.01 °N, 110.04 °W | Updated 34 minutes ago

Clear
Clear
-8 °F
Feels Like -8 °F
N
1
Wind Variable Wind from North
Gusts 5.0 mph

Today
High -- | Low -- °F
--% Chance of Precip.
Yesterday
High -- | Low -- °F
Precip. -- in
6:59 AM 6:08 PM
Waxing Gibbous, 85% visible
Pressure 30.47 in
Visibility -9999.0 miles
Clouds
Windchill -8 °F
Dew Point -15 °F
Humidity 72%
Rainfall 0.00 in
Snow Depth Not available.
UV Not available.
Pollen .10 out of 12
Air Quality Not available.
Flu Activity Not available.
METAR KP60 011256Z AUTO 00000KT M28/M32 A3010 RMK AO1 SLP317 T12831317

More Conditions Fewer Conditions

Pressure 30.47 in
Visibility -9999.0 miles
Clouds
Windchill -8 °F
Dew Point -15 °F
Humidity 72%
Rainfall 0.00 in
Snow Depth Not available.
UV Not available.
Pollen .10 out of 12
Air Quality Not available.
Flu Activity Not available.
METAR KP60 011256Z AUTO 00000KT M28/M32 A3010 RMK AO1 SLP317 T12831317

More Conditions Fewer Conditions

10-Day Weather Forecast

Almanac

Astronomy

Mar. 01, 2015 Rise Set
Actual Time
Civil Twilight
Nautical Twilight
Astronomical Twilight
Moon
Length of Visible Light
Length of Day
Tomorrow will be .
, % of the Moon is Illuminated

Today's Extremes

State Highs State Lows

Community

WunderPhotos

Upload Photos

1,801,382 photos uploaded!

WunderBlogs® & News

Nearby

Air Quality

  Air Quality AQ Index Pollutant
Not available.

Snow Depth

Station Depth Elevation

Earthquake Activity

City Distance Mag. Time & Date
Minimum magnitude displayed is 2.5.

Coastal Water Temperatures

Place Temperature

Nearby Weather Stations

Winter Storm Watch
Statement as of 4:02 AM MST on March 01, 2015

... Winter Storm Watch in effect from Monday evening through
Tuesday morning...

The National Weather Service in Billings has issued a Winter
Storm Watch... which is in effect from Monday evening through
Tuesday morning.

* Timing... Monday evening through noon on Tuesday

* snow accumulation... 8 to 14 inches in mountains... especially on
north facing slopes. 4 to 8 inches in the foothills. Locally
higher amounts possible.

* Winds... north at 15 to 25 mph.

* Impacts... heavy snowfall and gusty north winds may produce
hazardous driving conditions on area roadways... including
Highway 87 south of Livingston... Highway 212 south of
Laurel... and Interstate 90. These conditions will be dangerous
for Young livestock.

Precautionary/preparedness actions...

A Winter Storm Watch is issued when severe winter weather is
possible but not imminent. At this time there is a potential for
significant snow. Future driving conditions may become hazardous
so it is important to monitor the latest forecasts.



Http://weather.Gov/Billings